Skip Navigation Links
NOAA logo - Click to go to the NOAA homepage
NOAA's National Weather Service
Alaska Aviation Weather Unit
  NWS logo - Click to go to the NWS homepage
Left Navbar Graphic     03 AKDT = 11 GMT

   
NOAA is celebrating 200 years of science, service, and stewardship. Visit the NOAA 200th celebration Web site to learn more.
USA.gov is the U.S. Government's official Web portal to all Federal, state and local government Web resources and services.
Facebook
NWS on Facebook

AAWU Home :: Display TAF Add Bookmark
TAF CYDB 290538Z 2906/2918 10012G22KT P6SM SCT200
     BECMG 2911/2913 12008KT
    RMK FCST BASED ON AUTO OBS. NXT FCST BY 291200Z=

METAR CYDB 290500Z AUTO 12011G18KT 9SM OVC200 M01/M08 A2951 RMK SLP036= METAR CYDB 290600Z AUTO 12013G19KT 9SM BKN210 M02/M07 A2952 RMK SLP038= METAR CYDB 290700Z AUTO 13011G20KT 9SM BKN190 M01/M07 A2951 RMK SLP036= METAR CYDB 290800Z AUTO 13010G15KT 9SM FEW150 SCT170 OVC190 M01/M07 A2951 RMK SLP033= METAR CYDB 290900Z AUTO 12014G20KT 9SM BKN170 BKN190 M02/M07 A2951 RMK SLP032= METAR CYDB 291000Z AUTO 09010G19KT 070V130 9SM BKN160 BKN180 M02/M07 A2950 RMK SLP028=
 Alaska TAF Map

NOAA's National Weather Service
Alaska Aviation Weather Unit
6930 Sand Lake Road
Anchorage, AK 99502-1845
Disclaimer
Credits
Glossary
Privacy Policy
About Us
Career Opportunities
Contact AAWU Internet Services Site last modified: April, 17th 2012